Saint Martin Island, Guadeloupe
Current Conditions -  °F | °C
As of 9:00 PM on Sunday 23 Nov 2014 (Local Time) from TNCM Reporting Station
Scattered Clouds Scattered Clouds  
Wind Chill: 81°   Ceiling: Unl
Heat Index: 85°   Visibility: 6mi
Dew Point: 73°   Wind: 16mph
Humidity: 79%   Direction: 80°E
Pressure: 30"   Gusts: NA
Location:  18.09°N, 63.05°W
Report Text: TNCM 240100Z 08014KT 9999 SCT019 27/23 Q1016 A3002
Loading
Personal Weather Stations






























Interactive Weather Map New forecast layout! Learn more

10-Day Weather Forecast

Advertisements
Track Severe Weather on mobile